sensor_id;sensor_type;location;lat;lon;timestamp;P1;durP1;ratioP1;P2;durP2;ratioP2
53718;SDS011;39616;48.872;9.390;2023-09-19T00:00:59;2.05;;;0.63;;
53718;SDS011;39616;48.872;9.390;2023-09-19T00:03:29;0.82;;;0.30;;
53718;SDS011;39616;48.872;9.390;2023-09-19T00:06:01;1.05;;;0.50;;
53718;SDS011;39616;48.872;9.390;2023-09-19T00:08:31;1.67;;;0.30;;
53718;SDS011;39616;48.872;9.390;2023-09-19T00:11:03;3.10;;;0.60;;
53718;SDS011;39616;48.872;9.390;2023-09-19T00:13:34;1.73;;;0.40;;
53718;SDS011;39616;48.872;9.390;2023-09-19T00:16:09;2.15;;;0.50;;
53718;SDS011;39616;48.872;9.390;2023-09-19T00:18:44;0.52;;;0.40;;
53718;SDS011;39616;48.872;9.390;2023-09-19T00:21:14;1.70;;;0.40;;
53718;SDS011;39616;48.872;9.390;2023-09-19T00:23:45;3.40;;;0.43;;
53718;SDS011;39616;48.872;9.390;2023-09-19T00:26:15;2.35;;;0.40;;
53718;SDS011;39616;48.872;9.390;2023-09-19T00:28:48;1.27;;;0.45;;
53718;SDS011;39616;48.872;9.390;2023-09-19T00:31:18;3.20;;;0.60;;
53718;SDS011;39616;48.872;9.390;2023-09-19T00:33:48;1.08;;;0.40;;
53718;SDS011;39616;48.872;9.390;2023-09-19T00:36:19;1.23;;;0.50;;
53718;SDS011;39616;48.872;9.390;2023-09-19T00:38:49;2.15;;;0.50;;
53718;SDS011;39616;48.872;9.390;2023-09-19T00:41:19;1.63;;;0.50;;
53718;SDS011;39616;48.872;9.390;2023-09-19T00:43:50;1.10;;;0.50;;
53718;SDS011;39616;48.872;9.390;2023-09-19T00:46:21;0.40;;;0.38;;
53718;SDS011;39616;48.872;9.390;2023-09-19T00:48:51;3.35;;;0.40;;
53718;SDS011;39616;48.872;9.390;2023-09-19T00:51:21;0.73;;;0.40;;
53718;SDS011;39616;48.872;9.390;2023-09-19T00:53:52;0.82;;;0.50;;
53718;SDS011;39616;48.872;9.390;2023-09-19T00:56:23;2.75;;;0.40;;
53718;SDS011;39616;48.872;9.390;2023-09-19T00:58:53;1.10;;;0.50;;
53718;SDS011;39616;48.872;9.390;2023-09-19T01:01:23;1.08;;;0.40;;
53718;SDS011;39616;48.872;9.390;2023-09-19T01:03:55;1.77;;;0.38;;
53718;SDS011;39616;48.872;9.390;2023-09-19T01:06:25;1.33;;;0.40;;
53718;SDS011;39616;48.872;9.390;2023-09-19T01:08:56;1.58;;;0.50;;
53718;SDS011;39616;48.872;9.390;2023-09-19T01:11:34;1.38;;;0.32;;
53718;SDS011;39616;48.872;9.390;2023-09-19T01:16:51;1.13;;;0.30;;
53718;SDS011;39616;48.872;9.390;2023-09-19T01:22:57;1.27;;;0.40;;
53718;SDS011;39616;48.872;9.390;2023-09-19T01:26:00;1.08;;;0.40;;
53718;SDS011;39616;48.872;9.390;2023-09-19T01:28:48;0.50;;;0.40;;
53718;SDS011;39616;48.872;9.390;2023-09-19T01:31:36;0.60;;;0.30;;
53718;SDS011;39616;48.872;9.390;2023-09-19T01:34:07;1.08;;;0.45;;
53718;SDS011;39616;48.872;9.390;2023-09-19T01:36:38;1.63;;;0.40;;
53718;SDS011;39616;48.872;9.390;2023-09-19T01:39:10;1.45;;;0.50;;
53718;SDS011;39616;48.872;9.390;2023-09-19T01:44:29;1.63;;;0.30;;
53718;SDS011;39616;48.872;9.390;2023-09-19T01:47:13;2.03;;;0.32;;
53718;SDS011;39616;48.872;9.390;2023-09-19T01:50:12;1.95;;;0.38;;
53718;SDS011;39616;48.872;9.390;2023-09-19T01:53:20;1.75;;;0.40;;
53718;SDS011;39616;48.872;9.390;2023-09-19T01:55:51;0.47;;;0.40;;
53718;SDS011;39616;48.872;9.390;2023-09-19T01:58:27;0.30;;;0.30;;
53718;SDS011;39616;48.872;9.390;2023-09-19T02:01:04;1.63;;;0.30;;
53718;SDS011;39616;48.872;9.390;2023-09-19T02:03:38;0.30;;;0.30;;
53718;SDS011;39616;48.872;9.390;2023-09-19T02:06:13;1.30;;;0.40;;
53718;SDS011;39616;48.872;9.390;2023-09-19T02:08:45;0.52;;;0.40;;
53718;SDS011;39616;48.872;9.390;2023-09-19T02:11:17;2.47;;;0.40;;
53718;SDS011;39616;48.872;9.390;2023-09-19T02:13:47;1.90;;;0.50;;
53718;SDS011;39616;48.872;9.390;2023-09-19T02:16:18;0.50;;;0.40;;
53718;SDS011;39616;48.872;9.390;2023-09-19T02:18:50;1.85;;;0.30;;
53718;SDS011;39616;48.872;9.390;2023-09-19T02:21:21;1.15;;;0.40;;
53718;SDS011;39616;48.872;9.390;2023-09-19T02:23:51;2.05;;;0.40;;
53718;SDS011;39616;48.872;9.390;2023-09-19T02:26:22;1.38;;;0.30;;
53718;SDS011;39616;48.872;9.390;2023-09-19T02:28:57;0.82;;;0.30;;
53718;SDS011;39616;48.872;9.390;2023-09-19T02:31:27;1.33;;;0.45;;
53718;SDS011;39616;48.872;9.390;2023-09-19T02:33:59;1.80;;;0.38;;
53718;SDS011;39616;48.872;9.390;2023-09-19T02:36:30;0.40;;;0.30;;
53718;SDS011;39616;48.872;9.390;2023-09-19T02:39:01;1.77;;;0.32;;
53718;SDS011;39616;48.872;9.390;2023-09-19T02:41:31;0.73;;;0.30;;
53718;SDS011;39616;48.872;9.390;2023-09-19T02:44:03;1.55;;;0.30;;
53718;SDS011;39616;48.872;9.390;2023-09-19T02:46:37;0.70;;;0.40;;
53718;SDS011;39616;48.872;9.390;2023-09-19T02:49:07;0.50;;;0.40;;
53718;SDS011;39616;48.872;9.390;2023-09-19T02:51:38;0.35;;;0.30;;
53718;SDS011;39616;48.872;9.390;2023-09-19T02:54:08;0.57;;;0.30;;
53718;SDS011;39616;48.872;9.390;2023-09-19T02:56:39;1.65;;;0.40;;
53718;SDS011;39616;48.872;9.390;2023-09-19T02:59:09;0.38;;;0.38;;
53718;SDS011;39616;48.872;9.390;2023-09-19T03:01:42;1.45;;;0.40;;
53718;SDS011;39616;48.872;9.390;2023-09-19T03:04:14;3.40;;;0.35;;
53718;SDS011;39616;48.872;9.390;2023-09-19T03:06:49;1.02;;;0.40;;
53718;SDS011;39616;48.872;9.390;2023-09-19T03:09:21;1.23;;;0.30;;
53718;SDS011;39616;48.872;9.390;2023-09-19T03:11:52;1.67;;;0.40;;
53718;SDS011;39616;48.872;9.390;2023-09-19T03:14:22;1.33;;;0.40;;
53718;SDS011;39616;48.872;9.390;2023-09-19T03:16:53;0.40;;;0.40;;
53718;SDS011;39616;48.872;9.390;2023-09-19T03:19:24;0.63;;;0.30;;
53718;SDS011;39616;48.872;9.390;2023-09-19T03:21:56;0.60;;;0.50;;
53718;SDS011;39616;48.872;9.390;2023-09-19T03:24:27;0.60;;;0.43;;
53718;SDS011;39616;48.872;9.390;2023-09-19T03:26:59;2.45;;;0.40;;
53718;SDS011;39616;48.872;9.390;2023-09-19T03:29:29;0.50;;;0.35;;
53718;SDS011;39616;48.872;9.390;2023-09-19T03:32:00;0.35;;;0.30;;
53718;SDS011;39616;48.872;9.390;2023-09-19T03:34:31;1.38;;;0.47;;
53718;SDS011;39616;48.872;9.390;2023-09-19T03:37:02;0.30;;;0.30;;
53718;SDS011;39616;48.872;9.390;2023-09-19T03:39:32;0.75;;;0.30;;
53718;SDS011;39616;48.872;9.390;2023-09-19T03:42:02;0.75;;;0.47;;
53718;SDS011;39616;48.872;9.390;2023-09-19T03:44:37;0.60;;;0.40;;
53718;SDS011;39616;48.872;9.390;2023-09-19T03:47:07;3.00;;;0.40;;
53718;SDS011;39616;48.872;9.390;2023-09-19T03:49:37;0.50;;;0.40;;
53718;SDS011;39616;48.872;9.390;2023-09-19T03:52:07;0.60;;;0.40;;
53718;SDS011;39616;48.872;9.390;2023-09-19T03:54:38;1.85;;;0.40;;
53718;SDS011;39616;48.872;9.390;2023-09-19T03:57:10;2.05;;;0.45;;
53718;SDS011;39616;48.872;9.390;2023-09-19T03:59:40;0.60;;;0.50;;
53718;SDS011;39616;48.872;9.390;2023-09-19T04:02:13;0.82;;;0.50;;
53718;SDS011;39616;48.872;9.390;2023-09-19T04:04:52;0.70;;;0.40;;
53718;SDS011;39616;48.872;9.390;2023-09-19T04:07:22;0.80;;;0.40;;
53718;SDS011;39616;48.872;9.390;2023-09-19T04:09:52;1.58;;;0.50;;
53718;SDS011;39616;48.872;9.390;2023-09-19T04:12:23;3.00;;;0.52;;
53718;SDS011;39616;48.872;9.390;2023-09-19T04:14:53;0.98;;;0.45;;
53718;SDS011;39616;48.872;9.390;2023-09-19T04:17:24;0.80;;;0.40;;
53718;SDS011;39616;48.872;9.390;2023-09-19T04:19:54;1.05;;;0.50;;
53718;SDS011;39616;48.872;9.390;2023-09-19T04:22:24;0.65;;;0.47;;
53718;SDS011;39616;48.872;9.390;2023-09-19T04:24:55;1.00;;;0.55;;
53718;SDS011;39616;48.872;9.390;2023-09-19T04:27:28;1.02;;;0.60;;
53718;SDS011;39616;48.872;9.390;2023-09-19T04:29:58;1.60;;;0.70;;
53718;SDS011;39616;48.872;9.390;2023-09-19T04:32:29;1.40;;;0.63;;
53718;SDS011;39616;48.872;9.390;2023-09-19T04:35:02;0.55;;;0.55;;
53718;SDS011;39616;48.872;9.390;2023-09-19T04:37:39;1.50;;;0.50;;
53718;SDS011;39616;48.872;9.390;2023-09-19T04:40:10;1.30;;;0.80;;
53718;SDS011;39616;48.872;9.390;2023-09-19T04:42:53;0.60;;;0.60;;
53718;SDS011;39616;48.872;9.390;2023-09-19T04:45:29;0.98;;;0.60;;
53718;SDS011;39616;48.872;9.390;2023-09-19T04:48:00;0.82;;;0.70;;
53718;SDS011;39616;48.872;9.390;2023-09-19T04:50:30;0.65;;;0.50;;
53718;SDS011;39616;48.872;9.390;2023-09-19T04:53:01;1.60;;;0.60;;
53718;SDS011;39616;48.872;9.390;2023-09-19T04:55:31;2.25;;;0.63;;
53718;SDS011;39616;48.872;9.390;2023-09-19T04:58:02;2.25;;;0.60;;
53718;SDS011;39616;48.872;9.390;2023-09-19T05:00:33;0.88;;;0.60;;
53718;SDS011;39616;48.872;9.390;2023-09-19T05:03:05;2.40;;;0.73;;
53718;SDS011;39616;48.872;9.390;2023-09-19T05:05:35;2.60;;;0.63;;
53718;SDS011;39616;48.872;9.390;2023-09-19T05:08:08;1.10;;;0.55;;
53718;SDS011;39616;48.872;9.390;2023-09-19T05:10:39;0.95;;;0.50;;
53718;SDS011;39616;48.872;9.390;2023-09-19T05:13:10;3.95;;;0.73;;
53718;SDS011;39616;48.872;9.390;2023-09-19T05:15:40;2.88;;;1.08;;
53718;SDS011;39616;48.872;9.390;2023-09-19T05:18:10;1.65;;;0.82;;
53718;SDS011;39616;48.872;9.390;2023-09-19T05:20:41;1.25;;;0.70;;
53718;SDS011;39616;48.872;9.390;2023-09-19T05:23:12;1.75;;;0.80;;
53718;SDS011;39616;48.872;9.390;2023-09-19T05:25:42;1.65;;;0.70;;
53718;SDS011;39616;48.872;9.390;2023-09-19T05:28:13;1.92;;;0.70;;
53718;SDS011;39616;48.872;9.390;2023-09-19T05:30:45;1.30;;;0.60;;
53718;SDS011;39616;48.872;9.390;2023-09-19T05:33:16;2.55;;;0.93;;
53718;SDS011;39616;48.872;9.390;2023-09-19T05:35:48;2.33;;;0.90;;
53718;SDS011;39616;48.872;9.390;2023-09-19T05:38:18;2.88;;;0.90;;
53718;SDS011;39616;48.872;9.390;2023-09-19T05:40:50;4.82;;;0.80;;
53718;SDS011;39616;48.872;9.390;2023-09-19T05:43:20;2.72;;;0.90;;
53718;SDS011;39616;48.872;9.390;2023-09-19T05:45:50;2.03;;;0.80;;
53718;SDS011;39616;48.872;9.390;2023-09-19T05:48:22;3.25;;;0.90;;
53718;SDS011;39616;48.872;9.390;2023-09-19T05:50:52;2.45;;;0.80;;
53718;SDS011;39616;48.872;9.390;2023-09-19T05:53:22;5.43;;;1.10;;
53718;SDS011;39616;48.872;9.390;2023-09-19T05:55:53;3.53;;;1.10;;
53718;SDS011;39616;48.872;9.390;2023-09-19T05:58:23;1.70;;;1.05;;
53718;SDS011;39616;48.872;9.390;2023-09-19T06:00:54;3.15;;;1.00;;
53718;SDS011;39616;48.872;9.390;2023-09-19T06:03:26;6.70;;;0.93;;
53718;SDS011;39616;48.872;9.390;2023-09-19T06:05:56;0.95;;;0.80;;
53718;SDS011;39616;48.872;9.390;2023-09-19T06:08:27;2.70;;;0.90;;
53718;SDS011;39616;48.872;9.390;2023-09-19T06:10:58;1.90;;;1.15;;
53718;SDS011;39616;48.872;9.390;2023-09-19T06:13:29;2.58;;;0.90;;
53718;SDS011;39616;48.872;9.390;2023-09-19T06:15:59;3.35;;;1.10;;
53718;SDS011;39616;48.872;9.390;2023-09-19T06:18:34;2.83;;;1.10;;
53718;SDS011;39616;48.872;9.390;2023-09-19T06:21:06;4.38;;;1.02;;
53718;SDS011;39616;48.872;9.390;2023-09-19T06:23:37;4.57;;;0.90;;
53718;SDS011;39616;48.872;9.390;2023-09-19T06:26:08;3.20;;;1.00;;
53718;SDS011;39616;48.872;9.390;2023-09-19T06:28:39;6.82;;;1.00;;
53718;SDS011;39616;48.872;9.390;2023-09-19T06:31:10;1.77;;;0.90;;
53718;SDS011;39616;48.872;9.390;2023-09-19T06:33:40;2.40;;;0.90;;
53718;SDS011;39616;48.872;9.390;2023-09-19T06:36:11;2.22;;;0.95;;
53718;SDS011;39616;48.872;9.390;2023-09-19T06:38:41;2.47;;;0.90;;
53718;SDS011;39616;48.872;9.390;2023-09-19T06:41:11;4.93;;;1.25;;
53718;SDS011;39616;48.872;9.390;2023-09-19T06:43:43;3.70;;;1.20;;
53718;SDS011;39616;48.872;9.390;2023-09-19T06:46:13;3.00;;;1.30;;
53718;SDS011;39616;48.872;9.390;2023-09-19T06:48:44;2.25;;;1.20;;
53718;SDS011;39616;48.872;9.390;2023-09-19T06:51:14;1.80;;;1.00;;
53718;SDS011;39616;48.872;9.390;2023-09-19T06:53:45;1.80;;;1.02;;
53718;SDS011;39616;48.872;9.390;2023-09-19T06:56:16;3.45;;;0.90;;
53718;SDS011;39616;48.872;9.390;2023-09-19T06:58:46;2.55;;;1.17;;
53718;SDS011;39616;48.872;9.390;2023-09-19T07:01:16;4.53;;;0.95;;
53718;SDS011;39616;48.872;9.390;2023-09-19T07:03:48;2.55;;;1.00;;
53718;SDS011;39616;48.872;9.390;2023-09-19T07:06:19;2.63;;;1.40;;
53718;SDS011;39616;48.872;9.390;2023-09-19T07:08:49;2.60;;;0.90;;
53718;SDS011;39616;48.872;9.390;2023-09-19T07:11:20;4.50;;;1.40;;
53718;SDS011;39616;48.872;9.390;2023-09-19T07:13:51;1.65;;;1.13;;
53718;SDS011;39616;48.872;9.390;2023-09-19T07:16:21;3.33;;;1.10;;
53718;SDS011;39616;48.872;9.390;2023-09-19T07:18:59;3.08;;;0.95;;
53718;SDS011;39616;48.872;9.390;2023-09-19T07:21:29;3.08;;;1.17;;
53718;SDS011;39616;48.872;9.390;2023-09-19T07:24:00;2.10;;;1.00;;
53718;SDS011;39616;48.872;9.390;2023-09-19T07:26:31;2.58;;;0.95;;
53718;SDS011;39616;48.872;9.390;2023-09-19T07:29:01;1.38;;;0.90;;
53718;SDS011;39616;48.872;9.390;2023-09-19T07:31:34;3.65;;;0.90;;
53718;SDS011;39616;48.872;9.390;2023-09-19T07:34:04;2.53;;;1.00;;
53718;SDS011;39616;48.872;9.390;2023-09-19T07:36:36;1.95;;;1.00;;
53718;SDS011;39616;48.872;9.390;2023-09-19T07:39:08;2.10;;;0.90;;
53718;SDS011;39616;48.872;9.390;2023-09-19T07:41:38;3.55;;;1.10;;
53718;SDS011;39616;48.872;9.390;2023-09-19T07:44:08;3.65;;;1.00;;
53718;SDS011;39616;48.872;9.390;2023-09-19T07:46:40;2.55;;;0.65;;
53718;SDS011;39616;48.872;9.390;2023-09-19T07:49:10;4.88;;;0.80;;
53718;SDS011;39616;48.872;9.390;2023-09-19T07:51:40;2.05;;;0.82;;
53718;SDS011;39616;48.872;9.390;2023-09-19T07:54:12;1.83;;;0.80;;
53718;SDS011;39616;48.872;9.390;2023-09-19T07:56:42;3.05;;;0.88;;
53718;SDS011;39616;48.872;9.390;2023-09-19T07:59:13;8.30;;;1.02;;
53718;SDS011;39616;48.872;9.390;2023-09-19T08:01:43;2.60;;;0.80;;
53718;SDS011;39616;48.872;9.390;2023-09-19T08:04:14;3.33;;;1.00;;
53718;SDS011;39616;48.872;9.390;2023-09-19T08:06:46;2.25;;;0.73;;
53718;SDS011;39616;48.872;9.390;2023-09-19T08:09:17;3.33;;;0.63;;
53718;SDS011;39616;48.872;9.390;2023-09-19T08:11:50;5.55;;;0.80;;
53718;SDS011;39616;48.872;9.390;2023-09-19T08:14:21;2.58;;;0.80;;
53718;SDS011;39616;48.872;9.390;2023-09-19T08:16:55;3.90;;;0.63;;
53718;SDS011;39616;48.872;9.390;2023-09-19T08:19:26;3.95;;;0.60;;
53718;SDS011;39616;48.872;9.390;2023-09-19T08:21:58;2.15;;;0.93;;
53718;SDS011;39616;48.872;9.390;2023-09-19T08:24:29;4.00;;;0.70;;
53718;SDS011;39616;48.872;9.390;2023-09-19T08:27:00;2.85;;;0.60;;
53718;SDS011;39616;48.872;9.390;2023-09-19T08:29:31;4.68;;;0.80;;
53718;SDS011;39616;48.872;9.390;2023-09-19T08:32:01;3.13;;;0.80;;
53718;SDS011;39616;48.872;9.390;2023-09-19T08:34:32;1.23;;;0.47;;
53718;SDS011;39616;48.872;9.390;2023-09-19T08:37:04;3.35;;;0.80;;
53718;SDS011;39616;48.872;9.390;2023-09-19T08:39:34;1.27;;;0.60;;
53718;SDS011;39616;48.872;9.390;2023-09-19T08:42:06;1.27;;;0.50;;
53718;SDS011;39616;48.872;9.390;2023-09-19T08:44:38;1.65;;;0.60;;
53718;SDS011;39616;48.872;9.390;2023-09-19T08:47:10;3.08;;;0.60;;
53718;SDS011;39616;48.872;9.390;2023-09-19T08:52:52;3.88;;;0.60;;
53718;SDS011;39616;48.872;9.390;2023-09-19T08:55:29;2.10;;;0.50;;
53718;SDS011;39616;48.872;9.390;2023-09-19T08:58:02;1.00;;;0.50;;
53718;SDS011;39616;48.872;9.390;2023-09-19T09:00:34;0.75;;;0.50;;
53718;SDS011;39616;48.872;9.390;2023-09-19T09:03:05;2.08;;;0.50;;
53718;SDS011;39616;48.872;9.390;2023-09-19T09:05:41;1.75;;;0.60;;
53718;SDS011;39616;48.872;9.390;2023-09-19T09:08:13;2.22;;;0.50;;
53718;SDS011;39616;48.872;9.390;2023-09-19T09:10:45;2.95;;;0.85;;
53718;SDS011;39616;48.872;9.390;2023-09-19T09:13:15;1.55;;;0.50;;
53718;SDS011;39616;48.872;9.390;2023-09-19T09:15:46;7.53;;;0.45;;
53718;SDS011;39616;48.872;9.390;2023-09-19T09:18:18;2.10;;;0.40;;
53718;SDS011;39616;48.872;9.390;2023-09-19T09:20:48;2.13;;;0.40;;
53718;SDS011;39616;48.872;9.390;2023-09-19T09:23:19;1.20;;;0.52;;
53718;SDS011;39616;48.872;9.390;2023-09-19T09:25:50;1.02;;;0.60;;
53718;SDS011;39616;48.872;9.390;2023-09-19T09:28:25;0.95;;;0.57;;
53718;SDS011;39616;48.872;9.390;2023-09-19T09:30:58;1.23;;;0.43;;
53718;SDS011;39616;48.872;9.390;2023-09-19T09:33:28;1.30;;;0.50;;
53718;SDS011;39616;48.872;9.390;2023-09-19T09:35:59;1.65;;;0.40;;
53718;SDS011;39616;48.872;9.390;2023-09-19T09:38:45;2.33;;;0.47;;
53718;SDS011;39616;48.872;9.390;2023-09-19T09:41:18;1.25;;;0.60;;
53718;SDS011;39616;48.872;9.390;2023-09-19T09:43:57;1.27;;;0.40;;
53718;SDS011;39616;48.872;9.390;2023-09-19T09:46:44;0.88;;;0.40;;
53718;SDS011;39616;48.872;9.390;2023-09-19T09:49:26;2.40;;;0.60;;
53718;SDS011;39616;48.872;9.390;2023-09-19T09:52:04;2.17;;;0.55;;
53718;SDS011;39616;48.872;9.390;2023-09-19T09:54:37;2.50;;;0.50;;
53718;SDS011;39616;48.872;9.390;2023-09-19T09:57:08;5.88;;;0.70;;
53718;SDS011;39616;48.872;9.390;2023-09-19T09:59:53;2.58;;;0.40;;
53718;SDS011;39616;48.872;9.390;2023-09-19T10:02:43;2.47;;;0.65;;
53718;SDS011;39616;48.872;9.390;2023-09-19T10:05:19;1.83;;;0.50;;
53718;SDS011;39616;48.872;9.390;2023-09-19T10:07:50;3.28;;;0.40;;
53718;SDS011;39616;48.872;9.390;2023-09-19T10:10:33;1.08;;;0.35;;
53718;SDS011;39616;48.872;9.390;2023-09-19T10:13:29;0.90;;;0.40;;
53718;SDS011;39616;48.872;9.390;2023-09-19T10:16:01;1.40;;;0.40;;
53718;SDS011;39616;48.872;9.390;2023-09-19T10:18:39;2.00;;;0.55;;
53718;SDS011;39616;48.872;9.390;2023-09-19T10:21:14;3.35;;;0.60;;
53718;SDS011;39616;48.872;9.390;2023-09-19T10:23:44;1.38;;;0.40;;
53718;SDS011;39616;48.872;9.390;2023-09-19T10:26:17;1.65;;;0.45;;
53718;SDS011;39616;48.872;9.390;2023-09-19T10:28:48;2.65;;;0.50;;
53718;SDS011;39616;48.872;9.390;2023-09-19T10:31:20;1.10;;;0.40;;
53718;SDS011;39616;48.872;9.390;2023-09-19T10:33:55;1.85;;;0.50;;
53718;SDS011;39616;48.872;9.390;2023-09-19T10:36:25;1.95;;;0.47;;
53718;SDS011;39616;48.872;9.390;2023-09-19T10:38:57;2.03;;;0.40;;
53718;SDS011;39616;48.872;9.390;2023-09-19T10:41:32;1.97;;;0.33;;
53718;SDS011;39616;48.872;9.390;2023-09-19T10:44:04;0.68;;;0.40;;
53718;SDS011;39616;48.872;9.390;2023-09-19T10:46:36;0.55;;;0.38;;
53718;SDS011;39616;48.872;9.390;2023-09-19T10:49:08;3.22;;;0.40;;
53718;SDS011;39616;48.872;9.390;2023-09-19T10:51:41;1.70;;;0.40;;
53718;SDS011;39616;48.872;9.390;2023-09-19T10:54:13;0.60;;;0.40;;
53718;SDS011;39616;48.872;9.390;2023-09-19T10:56:48;1.05;;;0.40;;
53718;SDS011;39616;48.872;9.390;2023-09-19T10:59:22;1.52;;;0.40;;
53718;SDS011;39616;48.872;9.390;2023-09-19T11:01:57;0.57;;;0.38;;
53718;SDS011;39616;48.872;9.390;2023-09-19T11:15:10;0.85;;;0.50;;
53718;SDS011;39616;48.872;9.390;2023-09-19T11:26:43;0.60;;;0.47;;
53718;SDS011;39616;48.872;9.390;2023-09-19T11:29:24;2.67;;;0.40;;
53718;SDS011;39616;48.872;9.390;2023-09-19T11:31:55;1.13;;;0.40;;
53718;SDS011;39616;48.872;9.390;2023-09-19T11:34:38;1.08;;;0.30;;
53718;SDS011;39616;48.872;9.390;2023-09-19T11:42:47;1.73;;;0.50;;
53718;SDS011;39616;48.872;9.390;2023-09-19T11:48:30;0.70;;;0.38;;
53718;SDS011;39616;48.872;9.390;2023-09-19T11:51:03;3.38;;;0.40;;
53718;SDS011;39616;48.872;9.390;2023-09-19T11:53:50;5.07;;;0.50;;
53718;SDS011;39616;48.872;9.390;2023-09-19T11:56:22;1.23;;;0.60;;
53718;SDS011;39616;48.872;9.390;2023-09-19T11:58:55;2.85;;;0.50;;
53718;SDS011;39616;48.872;9.390;2023-09-19T12:01:30;3.35;;;0.38;;
53718;SDS011;39616;48.872;9.390;2023-09-19T12:04:02;4.95;;;0.60;;
53718;SDS011;39616;48.872;9.390;2023-09-19T12:06:34;0.85;;;0.45;;
53718;SDS011;39616;48.872;9.390;2023-09-19T12:09:05;2.97;;;0.50;;
53718;SDS011;39616;48.872;9.390;2023-09-19T12:11:42;1.98;;;0.50;;
53718;SDS011;39616;48.872;9.390;2023-09-19T12:14:21;0.93;;;0.60;;
53718;SDS011;39616;48.872;9.390;2023-09-19T12:16:55;0.63;;;0.40;;
53718;SDS011;39616;48.872;9.390;2023-09-19T12:19:26;4.63;;;0.50;;
53718;SDS011;39616;48.872;9.390;2023-09-19T12:22:02;3.40;;;0.47;;
53718;SDS011;39616;48.872;9.390;2023-09-19T12:24:36;1.80;;;0.50;;
53718;SDS011;39616;48.872;9.390;2023-09-19T12:27:08;0.77;;;0.50;;
53718;SDS011;39616;48.872;9.390;2023-09-19T12:29:43;0.75;;;0.40;;
53718;SDS011;39616;48.872;9.390;2023-09-19T12:32:15;1.92;;;0.57;;
53718;SDS011;39616;48.872;9.390;2023-09-19T12:34:51;1.10;;;0.50;;
53718;SDS011;39616;48.872;9.390;2023-09-19T12:37:22;1.77;;;0.50;;
53718;SDS011;39616;48.872;9.390;2023-09-19T12:40:06;1.98;;;0.50;;
53718;SDS011;39616;48.872;9.390;2023-09-19T12:42:52;1.20;;;0.40;;
53718;SDS011;39616;48.872;9.390;2023-09-19T12:45:25;1.85;;;0.40;;
53718;SDS011;39616;48.872;9.390;2023-09-19T12:51:26;1.98;;;0.50;;
53718;SDS011;39616;48.872;9.390;2023-09-19T12:53:56;3.00;;;0.68;;
53718;SDS011;39616;48.872;9.390;2023-09-19T12:56:27;1.00;;;0.50;;
53718;SDS011;39616;48.872;9.390;2023-09-19T12:58:59;2.90;;;0.60;;
53718;SDS011;39616;48.872;9.390;2023-09-19T13:01:33;0.73;;;0.40;;
53718;SDS011;39616;48.872;9.390;2023-09-19T13:04:19;1.40;;;0.50;;
53718;SDS011;39616;48.872;9.390;2023-09-19T13:06:58;0.82;;;0.50;;
53718;SDS011;39616;48.872;9.390;2023-09-19T13:09:30;0.80;;;0.38;;
53718;SDS011;39616;48.872;9.390;2023-09-19T13:12:54;0.47;;;0.40;;
53718;SDS011;39616;48.872;9.390;2023-09-19T13:15:10;0.68;;;0.40;;
53718;SDS011;39616;48.872;9.390;2023-09-19T13:17:43;2.00;;;0.50;;
53718;SDS011;39616;48.872;9.390;2023-09-19T13:20:24;1.75;;;0.40;;
53718;SDS011;39616;48.872;9.390;2023-09-19T13:22:59;0.70;;;0.40;;
53718;SDS011;39616;48.872;9.390;2023-09-19T13:25:30;4.15;;;0.50;;
53718;SDS011;39616;48.872;9.390;2023-09-19T13:28:04;1.38;;;0.40;;
53718;SDS011;39616;48.872;9.390;2023-09-19T13:30:36;0.63;;;0.40;;
53718;SDS011;39616;48.872;9.390;2023-09-19T13:33:10;1.48;;;0.50;;
53718;SDS011;39616;48.872;9.390;2023-09-19T13:35:43;1.17;;;0.40;;
53718;SDS011;39616;48.872;9.390;2023-09-19T13:38:14;2.08;;;0.70;;
53718;SDS011;39616;48.872;9.390;2023-09-19T13:40:44;0.82;;;0.40;;
53718;SDS011;39616;48.872;9.390;2023-09-19T13:43:14;1.42;;;0.30;;
53718;SDS011;39616;48.872;9.390;2023-09-19T13:45:46;2.13;;;0.40;;
53718;SDS011;39616;48.872;9.390;2023-09-19T13:48:16;0.60;;;0.40;;
53718;SDS011;39616;48.872;9.390;2023-09-19T13:50:50;0.93;;;0.50;;
53718;SDS011;39616;48.872;9.390;2023-09-19T13:53:20;1.17;;;0.43;;
53718;SDS011;39616;48.872;9.390;2023-09-19T13:55:50;1.08;;;0.50;;
53718;SDS011;39616;48.872;9.390;2023-09-19T13:58:21;1.42;;;0.43;;
53718;SDS011;39616;48.872;9.390;2023-09-19T14:00:53;0.60;;;0.40;;
53718;SDS011;39616;48.872;9.390;2023-09-19T14:03:28;2.85;;;0.50;;
53718;SDS011;39616;48.872;9.390;2023-09-19T14:05:58;2.03;;;0.45;;
53718;SDS011;39616;48.872;9.390;2023-09-19T14:08:28;1.67;;;0.40;;
53718;SDS011;39616;48.872;9.390;2023-09-19T14:10:59;0.50;;;0.50;;
53718;SDS011;39616;48.872;9.390;2023-09-19T14:13:29;0.93;;;0.50;;
53718;SDS011;39616;48.872;9.390;2023-09-19T14:16:03;1.63;;;0.50;;
53718;SDS011;39616;48.872;9.390;2023-09-19T14:18:35;2.42;;;0.60;;
53718;SDS011;39616;48.872;9.390;2023-09-19T14:21:06;0.60;;;0.50;;
53718;SDS011;39616;48.872;9.390;2023-09-19T14:23:41;1.95;;;0.43;;
53718;SDS011;39616;48.872;9.390;2023-09-19T14:26:12;3.47;;;0.60;;
53718;SDS011;39616;48.872;9.390;2023-09-19T14:28:42;2.33;;;0.43;;
53718;SDS011;39616;48.872;9.390;2023-09-19T14:31:13;1.15;;;0.50;;
53718;SDS011;39616;48.872;9.390;2023-09-19T14:33:44;1.95;;;0.50;;
53718;SDS011;39616;48.872;9.390;2023-09-19T14:36:15;1.05;;;0.40;;
53718;SDS011;39616;48.872;9.390;2023-09-19T14:38:47;0.82;;;0.50;;
53718;SDS011;39616;48.872;9.390;2023-09-19T14:41:17;0.70;;;0.50;;
53718;SDS011;39616;48.872;9.390;2023-09-19T14:43:48;0.65;;;0.40;;
53718;SDS011;39616;48.872;9.390;2023-09-19T14:46:19;0.82;;;0.60;;
53718;SDS011;39616;48.872;9.390;2023-09-19T14:48:49;2.05;;;0.65;;
53718;SDS011;39616;48.872;9.390;2023-09-19T14:51:21;3.70;;;0.60;;
53718;SDS011;39616;48.872;9.390;2023-09-19T14:53:52;1.55;;;0.57;;
53718;SDS011;39616;48.872;9.390;2023-09-19T14:56:23;1.58;;;0.40;;
53718;SDS011;39616;48.872;9.390;2023-09-19T14:58:55;1.80;;;0.57;;
53718;SDS011;39616;48.872;9.390;2023-09-19T15:01:25;1.88;;;0.47;;
53718;SDS011;39616;48.872;9.390;2023-09-19T15:03:56;1.63;;;0.43;;
53718;SDS011;39616;48.872;9.390;2023-09-19T15:06:27;0.60;;;0.50;;
53718;SDS011;39616;48.872;9.390;2023-09-19T15:08:57;3.10;;;0.50;;
53718;SDS011;39616;48.872;9.390;2023-09-19T15:11:28;0.88;;;0.40;;
53718;SDS011;39616;48.872;9.390;2023-09-19T15:13:58;3.05;;;0.47;;
53718;SDS011;39616;48.872;9.390;2023-09-19T15:16:29;2.95;;;0.45;;
53718;SDS011;39616;48.872;9.390;2023-09-19T15:18:59;1.10;;;0.50;;
53718;SDS011;39616;48.872;9.390;2023-09-19T15:21:29;1.45;;;0.60;;
53718;SDS011;39616;48.872;9.390;2023-09-19T15:24:00;1.33;;;0.60;;
53718;SDS011;39616;48.872;9.390;2023-09-19T15:26:31;0.55;;;0.45;;
53718;SDS011;39616;48.872;9.390;2023-09-19T15:29:02;3.58;;;0.55;;
53718;SDS011;39616;48.872;9.390;2023-09-19T15:31:32;0.60;;;0.40;;
53718;SDS011;39616;48.872;9.390;2023-09-19T15:34:03;1.98;;;0.60;;
53718;SDS011;39616;48.872;9.390;2023-09-19T15:36:34;1.42;;;0.50;;
53718;SDS011;39616;48.872;9.390;2023-09-19T15:39:06;0.50;;;0.40;;
53718;SDS011;39616;48.872;9.390;2023-09-19T15:41:46;1.75;;;0.43;;
53718;SDS011;39616;48.872;9.390;2023-09-19T15:44:19;1.40;;;0.50;;
53718;SDS011;39616;48.872;9.390;2023-09-19T15:46:55;0.93;;;0.50;;
53718;SDS011;39616;48.872;9.390;2023-09-19T15:49:27;0.38;;;0.38;;
53718;SDS011;39616;48.872;9.390;2023-09-19T15:51:57;1.55;;;0.40;;
53718;SDS011;39616;48.872;9.390;2023-09-19T15:54:28;0.90;;;0.60;;
53718;SDS011;39616;48.872;9.390;2023-09-19T15:56:59;0.88;;;0.50;;
53718;SDS011;39616;48.872;9.390;2023-09-19T15:59:33;2.65;;;0.40;;
53718;SDS011;39616;48.872;9.390;2023-09-19T16:02:05;0.80;;;0.47;;
53718;SDS011;39616;48.872;9.390;2023-09-19T16:04:35;2.67;;;0.52;;